sensor_id;sensor_type;location;lat;lon;timestamp;temperature;humidity
64499;SHT31;51087;55.718;21.122;2022-11-25T00:01:17;-1.10;95.52
64499;SHT31;51087;55.718;21.122;2022-11-25T00:03:43;-1.12;95.56
64499;SHT31;51087;55.718;21.122;2022-11-25T00:06:17;-1.16;95.47
64499;SHT31;51087;55.718;21.122;2022-11-25T00:08:44;-1.16;95.44
64499;SHT31;51087;55.718;21.122;2022-11-25T00:11:11;-1.16;95.53
64499;SHT31;51087;55.718;21.122;2022-11-25T00:13:37;-1.16;95.55
64499;SHT31;51087;55.718;21.122;2022-11-25T00:16:06;-1.17;95.59
64499;SHT31;51087;55.718;21.122;2022-11-25T00:18:31;-1.21;95.59
64499;SHT31;51087;55.718;21.122;2022-11-25T00:20:58;-1.20;95.58
64499;SHT31;51087;55.718;21.122;2022-11-25T00:23:24;-1.17;95.58
64499;SHT31;51087;55.718;21.122;2022-11-25T00:25:49;-1.16;95.61
64499;SHT31;51087;55.718;21.122;2022-11-25T00:28:15;-1.12;95.41
64499;SHT31;51087;55.718;21.122;2022-11-25T00:30:42;-1.16;95.53
64499;SHT31;51087;55.718;21.122;2022-11-25T00:33:08;-1.15;95.41
64499;SHT31;51087;55.718;21.122;2022-11-25T00:35:34;-1.17;95.54
64499;SHT31;51087;55.718;21.122;2022-11-25T00:37:59;-1.15;95.62
64499;SHT31;51087;55.718;21.122;2022-11-25T00:40:25;-1.20;95.78
64499;SHT31;51087;55.718;21.122;2022-11-25T00:42:51;-1.19;95.87
64499;SHT31;51087;55.718;21.122;2022-11-25T00:45:34;-1.17;96.06
64499;SHT31;51087;55.718;21.122;2022-11-25T00:48:00;-1.19;96.26
64499;SHT31;51087;55.718;21.122;2022-11-25T00:50:25;-1.19;96.17
64499;SHT31;51087;55.718;21.122;2022-11-25T00:52:51;-1.23;96.45
64499;SHT31;51087;55.718;21.122;2022-11-25T00:55:16;-1.23;96.54
64499;SHT31;51087;55.718;21.122;2022-11-25T00:57:41;-1.26;96.68
64499;SHT31;51087;55.718;21.122;2022-11-25T01:00:09;-1.24;96.88
64499;SHT31;51087;55.718;21.122;2022-11-25T01:02:35;-1.23;96.59
64499;SHT31;51087;55.718;21.122;2022-11-25T01:05:00;-1.23;96.72
64499;SHT31;51087;55.718;21.122;2022-11-25T01:07:26;-1.19;96.78
64499;SHT31;51087;55.718;21.122;2022-11-25T01:09:51;-1.17;96.67
64499;SHT31;51087;55.718;21.122;2022-11-25T01:12:16;-1.19;96.83
64499;SHT31;51087;55.718;21.122;2022-11-25T01:14:42;-1.21;96.81
64499;SHT31;51087;55.718;21.122;2022-11-25T01:17:07;-1.19;96.73
64499;SHT31;51087;55.718;21.122;2022-11-25T01:19:33;-1.20;96.61
64499;SHT31;51087;55.718;21.122;2022-11-25T01:22:04;-1.16;96.49
64499;SHT31;51087;55.718;21.122;2022-11-25T01:24:29;-1.16;96.66
64499;SHT31;51087;55.718;21.122;2022-11-25T01:26:55;-1.17;96.71
64499;SHT31;51087;55.718;21.122;2022-11-25T01:29:20;-1.21;96.82
64499;SHT31;51087;55.718;21.122;2022-11-25T01:31:47;-1.16;96.73
64499;SHT31;51087;55.718;21.122;2022-11-25T01:34:21;-1.19;96.77
64499;SHT31;51087;55.718;21.122;2022-11-25T01:36:47;-1.17;96.60
64499;SHT31;51087;55.718;21.122;2022-11-25T01:39:21;-1.13;96.41
64499;SHT31;51087;55.718;21.122;2022-11-25T01:41:47;-1.19;96.35
64499;SHT31;51087;55.718;21.122;2022-11-25T01:49:06;-1.17;96.53
64499;SHT31;51087;55.718;21.122;2022-11-25T01:54:08;-1.17;96.24
64499;SHT31;51087;55.718;21.122;2022-11-25T01:56:42;-1.15;96.22
64499;SHT31;51087;55.718;21.122;2022-11-25T01:59:10;-1.15;96.26
64499;SHT31;51087;55.718;21.122;2022-11-25T02:01:36;-1.17;96.11
64499;SHT31;51087;55.718;21.122;2022-11-25T02:04:02;-1.17;96.26
64499;SHT31;51087;55.718;21.122;2022-11-25T02:06:33;-1.17;96.26
64499;SHT31;51087;55.718;21.122;2022-11-25T02:09:06;-1.17;96.40
64499;SHT31;51087;55.718;21.122;2022-11-25T02:11:33;-1.21;96.41
64499;SHT31;51087;55.718;21.122;2022-11-25T02:14:01;-1.20;96.49
64499;SHT31;51087;55.718;21.122;2022-11-25T02:16:27;-1.13;96.29
64499;SHT31;51087;55.718;21.122;2022-11-25T02:18:52;-1.12;96.18
64499;SHT31;51087;55.718;21.122;2022-11-25T02:21:33;-1.06;95.95
64499;SHT31;51087;55.718;21.122;2022-11-25T02:24:18;-1.12;96.04
64499;SHT31;51087;55.718;21.122;2022-11-25T02:26:47;-1.12;96.14
64499;SHT31;51087;55.718;21.122;2022-11-25T02:29:12;-1.13;96.12
64499;SHT31;51087;55.718;21.122;2022-11-25T02:31:38;-1.19;96.24
64499;SHT31;51087;55.718;21.122;2022-11-25T02:34:03;-1.17;96.26
64499;SHT31;51087;55.718;21.122;2022-11-25T02:36:28;-1.17;96.37
64499;SHT31;51087;55.718;21.122;2022-11-25T02:38:56;-1.19;96.37
64499;SHT31;51087;55.718;21.122;2022-11-25T02:41:27;-1.15;96.34
64499;SHT31;51087;55.718;21.122;2022-11-25T02:43:53;-1.13;96.46
64499;SHT31;51087;55.718;21.122;2022-11-25T02:46:21;-1.16;96.40
64499;SHT31;51087;55.718;21.122;2022-11-25T02:48:48;-1.15;96.44
64499;SHT31;51087;55.718;21.122;2022-11-25T02:51:15;-1.13;96.24
64499;SHT31;51087;55.718;21.122;2022-11-25T02:53:43;-1.13;96.35
64499;SHT31;51087;55.718;21.122;2022-11-25T02:56:10;-1.07;96.05
64499;SHT31;51087;55.718;21.122;2022-11-25T02:58:36;-1.13;96.13
64499;SHT31;51087;55.718;21.122;2022-11-25T03:01:01;-1.16;96.19
64499;SHT31;51087;55.718;21.122;2022-11-25T03:03:27;-1.07;96.10
64499;SHT31;51087;55.718;21.122;2022-11-25T03:05:52;-1.15;96.22
64499;SHT31;51087;55.718;21.122;2022-11-25T03:08:18;-1.09;96.12
64499;SHT31;51087;55.718;21.122;2022-11-25T03:10:43;-1.13;96.13
64499;SHT31;51087;55.718;21.122;2022-11-25T03:13:09;-1.12;96.01
64499;SHT31;51087;55.718;21.122;2022-11-25T03:15:35;-1.17;96.30
64499;SHT31;51087;55.718;21.122;2022-11-25T03:18:03;-1.07;96.08
64499;SHT31;51087;55.718;21.122;2022-11-25T03:20:28;-1.10;96.04
64499;SHT31;51087;55.718;21.122;2022-11-25T03:22:54;-1.15;96.18
64499;SHT31;51087;55.718;21.122;2022-11-25T03:25:19;-1.13;96.23
64499;SHT31;51087;55.718;21.122;2022-11-25T03:27:45;-1.17;96.40
64499;SHT31;51087;55.718;21.122;2022-11-25T03:30:15;-1.15;96.44
64499;SHT31;51087;55.718;21.122;2022-11-25T03:32:41;-1.13;96.31
64499;SHT31;51087;55.718;21.122;2022-11-25T03:35:07;-1.15;96.39
64499;SHT31;51087;55.718;21.122;2022-11-25T03:37:33;-1.15;96.44
64499;SHT31;51087;55.718;21.122;2022-11-25T03:39:59;-1.13;96.48
64499;SHT31;51087;55.718;21.122;2022-11-25T03:42:24;-1.09;96.51
64499;SHT31;51087;55.718;21.122;2022-11-25T03:44:49;-1.10;96.29
64499;SHT31;51087;55.718;21.122;2022-11-25T03:47:15;-1.13;96.36
64499;SHT31;51087;55.718;21.122;2022-11-25T03:49:40;-1.17;96.53
64499;SHT31;51087;55.718;21.122;2022-11-25T03:52:06;-1.16;96.48
64499;SHT31;51087;55.718;21.122;2022-11-25T03:54:31;-1.13;96.51
64499;SHT31;51087;55.718;21.122;2022-11-25T03:56:57;-1.15;96.56
64499;SHT31;51087;55.718;21.122;2022-11-25T03:59:22;-1.13;96.50
64499;SHT31;51087;55.718;21.122;2022-11-25T04:01:48;-1.15;96.40
64499;SHT31;51087;55.718;21.122;2022-11-25T04:04:13;-1.12;96.38
64499;SHT31;51087;55.718;21.122;2022-11-25T04:06:39;-1.07;96.32
64499;SHT31;51087;55.718;21.122;2022-11-25T04:09:08;-1.05;96.12
64499;SHT31;51087;55.718;21.122;2022-11-25T04:11:36;-1.03;95.99
64499;SHT31;51087;55.718;21.122;2022-11-25T04:14:20;-1.05;96.04
64499;SHT31;51087;55.718;21.122;2022-11-25T04:16:46;-1.10;96.20
64499;SHT31;51087;55.718;21.122;2022-11-25T04:19:11;-1.10;96.39
64499;SHT31;51087;55.718;21.122;2022-11-25T04:21:36;-1.12;96.37
64499;SHT31;51087;55.718;21.122;2022-11-25T04:24:02;-1.09;96.24
64499;SHT31;51087;55.718;21.122;2022-11-25T04:26:27;-1.07;96.16
64499;SHT31;51087;55.718;21.122;2022-11-25T04:28:53;-1.07;96.02
64499;SHT31;51087;55.718;21.122;2022-11-25T04:31:18;-1.03;95.98
64499;SHT31;51087;55.718;21.122;2022-11-25T04:33:44;-1.10;96.17
64499;SHT31;51087;55.718;21.122;2022-11-25T04:36:09;-1.12;96.27
64499;SHT31;51087;55.718;21.122;2022-11-25T04:38:35;-1.15;96.34
64499;SHT31;51087;55.718;21.122;2022-11-25T04:41:00;-1.16;96.30
64499;SHT31;51087;55.718;21.122;2022-11-25T04:43:26;-1.13;96.39
64499;SHT31;51087;55.718;21.122;2022-11-25T04:45:52;-1.19;96.53
64499;SHT31;51087;55.718;21.122;2022-11-25T04:48:17;-1.17;96.49
64499;SHT31;51087;55.718;21.122;2022-11-25T04:50:43;-1.12;96.37
64499;SHT31;51087;55.718;21.122;2022-11-25T04:53:09;-1.15;96.32
64499;SHT31;51087;55.718;21.122;2022-11-25T04:55:34;-1.16;96.53
64499;SHT31;51087;55.718;21.122;2022-11-25T04:58:01;-1.16;96.42
64499;SHT31;51087;55.718;21.122;2022-11-25T05:00:27;-1.17;96.51
64499;SHT31;51087;55.718;21.122;2022-11-25T05:02:52;-1.20;96.60
64499;SHT31;51087;55.718;21.122;2022-11-25T05:05:18;-1.20;96.65
64499;SHT31;51087;55.718;21.122;2022-11-25T05:07:44;-1.21;96.78
64499;SHT31;51087;55.718;21.122;2022-11-25T05:10:09;-1.23;96.86
64499;SHT31;51087;55.718;21.122;2022-11-25T05:12:35;-1.24;96.89
64499;SHT31;51087;55.718;21.122;2022-11-25T05:15:01;-1.30;97.04
64499;SHT31;51087;55.718;21.122;2022-11-25T05:17:30;-1.34;97.32
64499;SHT31;51087;55.718;21.122;2022-11-25T05:19:56;-1.36;97.55
64499;SHT31;51087;55.718;21.122;2022-11-25T05:22:24;-1.36;97.64
64499;SHT31;51087;55.718;21.122;2022-11-25T05:24:51;-1.34;97.69
64499;SHT31;51087;55.718;21.122;2022-11-25T05:27:17;-1.34;97.71
64499;SHT31;51087;55.718;21.122;2022-11-25T05:29:43;-1.36;97.79
64499;SHT31;51087;55.718;21.122;2022-11-25T05:32:11;-1.34;97.71
64499;SHT31;51087;55.718;21.122;2022-11-25T05:34:37;-1.34;97.81
64499;SHT31;51087;55.718;21.122;2022-11-25T05:37:29;-1.30;97.78
64499;SHT31;51087;55.718;21.122;2022-11-25T05:39:54;-1.33;97.79
64499;SHT31;51087;55.718;21.122;2022-11-25T05:42:19;-1.30;97.86
64499;SHT31;51087;55.718;21.122;2022-11-25T05:44:45;-1.29;97.84
64499;SHT31;51087;55.718;21.122;2022-11-25T05:47:10;-1.29;97.80
64499;SHT31;51087;55.718;21.122;2022-11-25T05:49:36;-1.23;97.69
64499;SHT31;51087;55.718;21.122;2022-11-25T05:52:01;-1.26;97.77
64499;SHT31;51087;55.718;21.122;2022-11-25T05:54:27;-1.20;97.60
64499;SHT31;51087;55.718;21.122;2022-11-25T05:56:52;-1.21;97.60
64499;SHT31;51087;55.718;21.122;2022-11-25T05:59:18;-1.21;97.66
64499;SHT31;51087;55.718;21.122;2022-11-25T06:01:43;-1.17;97.49
64499;SHT31;51087;55.718;21.122;2022-11-25T06:04:09;-1.16;97.57
64499;SHT31;51087;55.718;21.122;2022-11-25T06:06:35;-1.15;97.43
64499;SHT31;51087;55.718;21.122;2022-11-25T06:09:01;-1.15;97.46
64499;SHT31;51087;55.718;21.122;2022-11-25T06:11:26;-1.12;97.22
64499;SHT31;51087;55.718;21.122;2022-11-25T06:13:52;-1.10;97.10
64499;SHT31;51087;55.718;21.122;2022-11-25T06:16:21;-1.06;97.00
64499;SHT31;51087;55.718;21.122;2022-11-25T06:18:47;-1.02;96.94
64499;SHT31;51087;55.718;21.122;2022-11-25T06:21:13;-1.02;96.75
64499;SHT31;51087;55.718;21.122;2022-11-25T06:23:39;-0.97;96.95
64499;SHT31;51087;55.718;21.122;2022-11-25T06:26:12;-0.99;96.71
64499;SHT31;51087;55.718;21.122;2022-11-25T06:28:38;-0.97;96.66
64499;SHT31;51087;55.718;21.122;2022-11-25T06:31:12;-0.97;96.58
64499;SHT31;51087;55.718;21.122;2022-11-25T06:33:38;-0.99;96.71
64499;SHT31;51087;55.718;21.122;2022-11-25T06:36:06;-0.99;96.87
64499;SHT31;51087;55.718;21.122;2022-11-25T06:38:32;-0.95;96.81
64499;SHT31;51087;55.718;21.122;2022-11-25T06:41:02;-0.92;96.70
64499;SHT31;51087;55.718;21.122;2022-11-25T06:43:28;-0.95;96.54
64499;SHT31;51087;55.718;21.122;2022-11-25T06:45:53;-0.89;96.49
64499;SHT31;51087;55.718;21.122;2022-11-25T06:48:19;-0.89;96.42
64499;SHT31;51087;55.718;21.122;2022-11-25T06:50:44;-0.89;96.38
64499;SHT31;51087;55.718;21.122;2022-11-25T06:53:19;-0.85;96.34
64499;SHT31;51087;55.718;21.122;2022-11-25T06:55:44;-0.78;96.18
64499;SHT31;51087;55.718;21.122;2022-11-25T06:58:09;-0.78;95.97
64499;SHT31;51087;55.718;21.122;2022-11-25T07:00:35;-0.77;96.00
64499;SHT31;51087;55.718;21.122;2022-11-25T07:03:00;-0.75;95.98
64499;SHT31;51087;55.718;21.122;2022-11-25T07:05:26;-0.74;95.84
64499;SHT31;51087;55.718;21.122;2022-11-25T07:07:51;-0.69;95.79
64499;SHT31;51087;55.718;21.122;2022-11-25T07:10:18;-0.71;95.84
64499;SHT31;51087;55.718;21.122;2022-11-25T07:12:44;-0.72;95.94
64499;SHT31;51087;55.718;21.122;2022-11-25T07:15:09;-0.65;95.64
64499;SHT31;51087;55.718;21.122;2022-11-25T07:17:35;-0.67;95.67
64499;SHT31;51087;55.718;21.122;2022-11-25T07:20:00;-0.62;95.69
64499;SHT31;51087;55.718;21.122;2022-11-25T07:22:25;-0.62;95.70
64499;SHT31;51087;55.718;21.122;2022-11-25T07:24:51;-0.61;95.58
64499;SHT31;51087;55.718;21.122;2022-11-25T07:27:16;-0.58;95.54
64499;SHT31;51087;55.718;21.122;2022-11-25T07:29:42;-0.57;95.43
64499;SHT31;51087;55.718;21.122;2022-11-25T07:32:07;-0.53;95.53
64499;SHT31;51087;55.718;21.122;2022-11-25T07:34:32;-0.47;95.28
64499;SHT31;51087;55.718;21.122;2022-11-25T07:36:58;-0.44;95.04
64499;SHT31;51087;55.718;21.122;2022-11-25T07:39:23;-0.37;95.08
64499;SHT31;51087;55.718;21.122;2022-11-25T07:41:50;-0.37;94.65
64499;SHT31;51087;55.718;21.122;2022-11-25T07:44:16;-0.29;94.46
64499;SHT31;51087;55.718;21.122;2022-11-25T07:46:44;-0.23;93.99
64499;SHT31;51087;55.718;21.122;2022-11-25T07:49:12;-0.24;94.13
64499;SHT31;51087;55.718;21.122;2022-11-25T07:51:40;-0.26;94.01
64499;SHT31;51087;55.718;21.122;2022-11-25T07:54:09;-0.17;93.82
64499;SHT31;51087;55.718;21.122;2022-11-25T07:56:36;-0.20;94.03
64499;SHT31;51087;55.718;21.122;2022-11-25T07:59:03;-0.19;94.01
64499;SHT31;51087;55.718;21.122;2022-11-25T08:01:29;-0.05;93.56
64499;SHT31;51087;55.718;21.122;2022-11-25T08:03:54;-0.06;93.53
64499;SHT31;51087;55.718;21.122;2022-11-25T08:06:23;-0.10;93.58
64499;SHT31;51087;55.718;21.122;2022-11-25T08:08:49;-0.03;93.38
64499;SHT31;51087;55.718;21.122;2022-11-25T08:11:20;-0.03;93.37
64499;SHT31;51087;55.718;21.122;2022-11-25T08:13:46;-0.05;93.59
64499;SHT31;51087;55.718;21.122;2022-11-25T08:16:13;-0.01;93.76
64499;SHT31;51087;55.718;21.122;2022-11-25T08:18:39;0.04;93.33
64499;SHT31;51087;55.718;21.122;2022-11-25T08:21:07;0.09;93.17
64499;SHT31;51087;55.718;21.122;2022-11-25T08:23:37;0.15;93.21
64499;SHT31;51087;55.718;21.122;2022-11-25T08:26:11;0.19;92.70
64499;SHT31;51087;55.718;21.122;2022-11-25T08:28:37;0.22;92.74
64499;SHT31;51087;55.718;21.122;2022-11-25T08:31:05;0.29;92.67
64499;SHT31;51087;55.718;21.122;2022-11-25T08:33:31;0.32;92.28
64499;SHT31;51087;55.718;21.122;2022-11-25T08:35:56;0.35;92.12
64499;SHT31;51087;55.718;21.122;2022-11-25T08:38:22;0.36;92.10
64499;SHT31;51087;55.718;21.122;2022-11-25T08:40:47;0.36;92.22
64499;SHT31;51087;55.718;21.122;2022-11-25T08:43:13;0.39;92.10
64499;SHT31;51087;55.718;21.122;2022-11-25T08:45:42;0.43;92.02
64499;SHT31;51087;55.718;21.122;2022-11-25T08:48:08;0.60;91.57
64499;SHT31;51087;55.718;21.122;2022-11-25T08:50:33;0.66;90.96
64499;SHT31;51087;55.718;21.122;2022-11-25T08:52:59;0.62;91.30
64499;SHT31;51087;55.718;21.122;2022-11-25T08:55:26;0.73;91.25
64499;SHT31;51087;55.718;21.122;2022-11-25T08:57:53;0.64;91.15
64499;SHT31;51087;55.718;21.122;2022-11-25T09:00:19;0.76;91.26
64499;SHT31;51087;55.718;21.122;2022-11-25T09:02:45;0.84;91.16
64499;SHT31;51087;55.718;21.122;2022-11-25T09:05:13;0.91;90.55
64499;SHT31;51087;55.718;21.122;2022-11-25T09:07:40;0.98;90.19
64499;SHT31;51087;55.718;21.122;2022-11-25T09:10:08;1.02;89.88
64499;SHT31;51087;55.718;21.122;2022-11-25T09:12:34;1.11;89.54
64499;SHT31;51087;55.718;21.122;2022-11-25T09:14:59;1.09;89.39
64499;SHT31;51087;55.718;21.122;2022-11-25T09:17:25;1.14;89.64
64499;SHT31;51087;55.718;21.122;2022-11-25T09:19:51;1.21;89.69
64499;SHT31;51087;55.718;21.122;2022-11-25T09:22:17;1.28;89.15
64499;SHT31;51087;55.718;21.122;2022-11-25T09:24:42;1.45;89.01
64499;SHT31;51087;55.718;21.122;2022-11-25T09:27:09;1.35;88.79
64499;SHT31;51087;55.718;21.122;2022-11-25T09:29:35;1.35;88.83
64499;SHT31;51087;55.718;21.122;2022-11-25T09:32:00;1.43;88.84
64499;SHT31;51087;55.718;21.122;2022-11-25T09:34:26;1.56;88.43
64499;SHT31;51087;55.718;21.122;2022-11-25T09:36:51;1.43;88.57
64499;SHT31;51087;55.718;21.122;2022-11-25T09:39:17;1.40;88.67
64499;SHT31;51087;55.718;21.122;2022-11-25T09:42:54;1.32;88.52
64499;SHT31;51087;55.718;21.122;2022-11-25T09:46:06;1.48;88.29
64499;SHT31;51087;55.718;21.122;2022-11-25T09:54:26;1.70;88.08
64499;SHT31;51087;55.718;21.122;2022-11-25T09:57:02;1.67;87.41
64499;SHT31;51087;55.718;21.122;2022-11-25T09:59:42;1.68;87.31
64499;SHT31;51087;55.718;21.122;2022-11-25T10:05:27;1.83;87.08
64499;SHT31;51087;55.718;21.122;2022-11-25T10:07:56;1.81;86.98
64499;SHT31;51087;55.718;21.122;2022-11-25T10:10:39;1.80;87.13
64499;SHT31;51087;55.718;21.122;2022-11-25T10:13:16;1.73;87.48
64499;SHT31;51087;55.718;21.122;2022-11-25T10:15:51;1.74;87.27
64499;SHT31;51087;55.718;21.122;2022-11-25T10:18:25;1.70;87.29
64499;SHT31;51087;55.718;21.122;2022-11-25T10:20:53;1.67;87.74
64499;SHT31;51087;55.718;21.122;2022-11-25T10:23:34;1.73;87.53
64499;SHT31;51087;55.718;21.122;2022-11-25T10:26:11;1.77;87.67
64499;SHT31;51087;55.718;21.122;2022-11-25T10:28:40;1.80;87.52
64499;SHT31;51087;55.718;21.122;2022-11-25T10:33:50;1.95;87.38
64499;SHT31;51087;55.718;21.122;2022-11-25T10:36:24;1.94;86.86
64499;SHT31;51087;55.718;21.122;2022-11-25T10:39:00;2.00;86.78
64499;SHT31;51087;55.718;21.122;2022-11-25T10:41:51;2.14;86.48
64499;SHT31;51087;55.718;21.122;2022-11-25T10:44:27;2.13;86.77
64499;SHT31;51087;55.718;21.122;2022-11-25T10:47:00;2.08;86.59
64499;SHT31;51087;55.718;21.122;2022-11-25T10:49:34;2.01;86.60
64499;SHT31;51087;55.718;21.122;2022-11-25T10:52:00;2.13;86.46
64499;SHT31;51087;55.718;21.122;2022-11-25T10:54:27;2.07;86.45
64499;SHT31;51087;55.718;21.122;2022-11-25T10:57:00;1.93;86.65
64499;SHT31;51087;55.718;21.122;2022-11-25T10:59:33;1.98;86.52
64499;SHT31;51087;55.718;21.122;2022-11-25T11:07:40;1.97;86.38
64499;SHT31;51087;55.718;21.122;2022-11-25T11:10:18;1.93;86.14
64499;SHT31;51087;55.718;21.122;2022-11-25T11:13:01;2.00;86.13
64499;SHT31;51087;55.718;21.122;2022-11-25T11:21:05;1.94;86.26
64499;SHT31;51087;55.718;21.122;2022-11-25T11:23:47;1.90;86.74
64499;SHT31;51087;55.718;21.122;2022-11-25T11:26:34;1.80;86.76
64499;SHT31;51087;55.718;21.122;2022-11-25T11:29:04;1.78;86.82
64499;SHT31;51087;55.718;21.122;2022-11-25T11:31:36;1.63;87.36
64499;SHT31;51087;55.718;21.122;2022-11-25T11:50:49;1.50;88.29
64499;SHT31;51087;55.718;21.122;2022-11-25T11:53:30;1.45;88.64
64499;SHT31;51087;55.718;21.122;2022-11-25T12:06:32;1.45;88.74
64499;SHT31;51087;55.718;21.122;2022-11-25T12:09:06;1.43;89.00
64499;SHT31;51087;55.718;21.122;2022-11-25T12:11:34;1.42;88.81
64499;SHT31;51087;55.718;21.122;2022-11-25T12:16:59;1.46;88.95
64499;SHT31;51087;55.718;21.122;2022-11-25T12:22:29;1.42;89.09
64499;SHT31;51087;55.718;21.122;2022-11-25T12:28:17;1.43;89.16
64499;SHT31;51087;55.718;21.122;2022-11-25T12:33:44;1.46;89.41
64499;SHT31;51087;55.718;21.122;2022-11-25T12:36:21;1.43;89.12
64499;SHT31;51087;55.718;21.122;2022-11-25T12:41:40;1.38;89.46
64499;SHT31;51087;55.718;21.122;2022-11-25T12:46:58;1.32;89.60
64499;SHT31;51087;55.718;21.122;2022-11-25T12:49:41;1.34;89.67
64499;SHT31;51087;55.718;21.122;2022-11-25T12:55:13;1.32;89.57
64499;SHT31;51087;55.718;21.122;2022-11-25T13:00:14;1.27;89.93
64499;SHT31;51087;55.718;21.122;2022-11-25T13:02:45;1.28;90.03
64499;SHT31;51087;55.718;21.122;2022-11-25T13:11:06;1.25;90.23
64499;SHT31;51087;55.718;21.122;2022-11-25T13:16:32;1.21;90.41
64499;SHT31;51087;55.718;21.122;2022-11-25T13:18:57;1.19;90.66
64499;SHT31;51087;55.718;21.122;2022-11-25T13:21:31;1.11;90.82
64499;SHT31;51087;55.718;21.122;2022-11-25T13:23:57;1.14;90.90
64499;SHT31;51087;55.718;21.122;2022-11-25T13:29:01;1.14;91.04
64499;SHT31;51087;55.718;21.122;2022-11-25T13:31:31;1.19;90.84
64499;SHT31;51087;55.718;21.122;2022-11-25T13:36:23;1.14;91.11
64499;SHT31;51087;55.718;21.122;2022-11-25T13:46:36;1.00;91.62
64499;SHT31;51087;55.718;21.122;2022-11-25T13:49:05;1.00;91.60
64499;SHT31;51087;55.718;21.122;2022-11-25T13:51:31;0.95;91.73
64499;SHT31;51087;55.718;21.122;2022-11-25T13:53:59;0.97;91.81
64499;SHT31;51087;55.718;21.122;2022-11-25T13:56:33;0.94;91.66
64499;SHT31;51087;55.718;21.122;2022-11-25T14:01:35;0.95;91.75
64499;SHT31;51087;55.718;21.122;2022-11-25T14:04:06;0.94;91.76
64499;SHT31;51087;55.718;21.122;2022-11-25T14:06:51;0.88;92.05
64499;SHT31;51087;55.718;21.122;2022-11-25T14:09:30;0.88;92.09
64499;SHT31;51087;55.718;21.122;2022-11-25T14:12:04;0.85;92.22
64499;SHT31;51087;55.718;21.122;2022-11-25T14:25:53;0.80;92.63
64499;SHT31;51087;55.718;21.122;2022-11-25T14:30:53;0.80;92.59
64499;SHT31;51087;55.718;21.122;2022-11-25T14:33:24;0.83;92.63
64499;SHT31;51087;55.718;21.122;2022-11-25T14:36:02;0.79;92.68
64499;SHT31;51087;55.718;21.122;2022-11-25T14:38:52;0.79;92.80
64499;SHT31;51087;55.718;21.122;2022-11-25T14:41:22;0.80;92.66
64499;SHT31;51087;55.718;21.122;2022-11-25T14:43:54;0.79;92.60
64499;SHT31;51087;55.718;21.122;2022-11-25T14:46:22;0.73;92.79
64499;SHT31;51087;55.718;21.122;2022-11-25T14:48:59;0.76;92.85
64499;SHT31;51087;55.718;21.122;2022-11-25T14:51:35;0.73;92.95
64499;SHT31;51087;55.718;21.122;2022-11-25T14:54:02;0.76;92.76
64499;SHT31;51087;55.718;21.122;2022-11-25T14:56:34;0.72;92.89
64499;SHT31;51087;55.718;21.122;2022-11-25T14:59:00;0.69;93.03
64499;SHT31;51087;55.718;21.122;2022-11-25T15:01:31;0.66;93.14
64499;SHT31;51087;55.718;21.122;2022-11-25T15:04:11;0.67;93.19
64499;SHT31;51087;55.718;21.122;2022-11-25T15:06:40;0.69;93.30
64499;SHT31;51087;55.718;21.122;2022-11-25T15:09:17;0.73;93.14
64499;SHT31;51087;55.718;21.122;2022-11-25T15:11:43;0.70;93.25
64499;SHT31;51087;55.718;21.122;2022-11-25T15:14:24;0.72;93.20
64499;SHT31;51087;55.718;21.122;2022-11-25T15:16:50;0.70;93.40
64499;SHT31;51087;55.718;21.122;2022-11-25T15:19:18;0.70;93.39
64499;SHT31;51087;55.718;21.122;2022-11-25T15:21:44;0.70;93.44
64499;SHT31;51087;55.718;21.122;2022-11-25T15:24:23;0.70;93.35
64499;SHT31;51087;55.718;21.122;2022-11-25T15:26:54;0.69;93.54
64499;SHT31;51087;55.718;21.122;2022-11-25T15:29:20;0.69;93.42
64499;SHT31;51087;55.718;21.122;2022-11-25T15:31:47;0.70;93.51
64499;SHT31;51087;55.718;21.122;2022-11-25T15:34:13;0.66;93.62
64499;SHT31;51087;55.718;21.122;2022-11-25T15:36:40;0.64;93.69
64499;SHT31;51087;55.718;21.122;2022-11-25T15:39:25;0.70;93.59
64499;SHT31;51087;55.718;21.122;2022-11-25T15:42:18;0.69;93.64
64499;SHT31;51087;55.718;21.122;2022-11-25T15:44:50;0.67;93.87
64499;SHT31;51087;55.718;21.122;2022-11-25T15:52:55;0.67;93.90
64499;SHT31;51087;55.718;21.122;2022-11-25T15:55:34;0.69;93.89
64499;SHT31;51087;55.718;21.122;2022-11-25T15:58:24;0.69;93.97
64499;SHT31;51087;55.718;21.122;2022-11-25T16:01:05;0.72;93.97
64499;SHT31;51087;55.718;21.122;2022-11-25T16:03:32;0.73;93.77
64499;SHT31;51087;55.718;21.122;2022-11-25T16:05:58;0.64;93.89
64499;SHT31;51087;55.718;21.122;2022-11-25T16:08:34;0.67;93.89
64499;SHT31;51087;55.718;21.122;2022-11-25T16:11:16;0.62;94.17
64499;SHT31;51087;55.718;21.122;2022-11-25T16:13:47;0.59;94.26
64499;SHT31;51087;55.718;21.122;2022-11-25T16:21:20;0.57;94.34
64499;SHT31;51087;55.718;21.122;2022-11-25T16:23:50;0.52;94.54
64499;SHT31;51087;55.718;21.122;2022-11-25T16:29:12;0.53;94.76
64499;SHT31;51087;55.718;21.122;2022-11-25T16:31:39;0.54;94.68
64499;SHT31;51087;55.718;21.122;2022-11-25T16:34:16;0.54;94.55
64499;SHT31;51087;55.718;21.122;2022-11-25T16:36:42;0.56;94.61
64499;SHT31;51087;55.718;21.122;2022-11-25T16:39:07;0.53;94.65
64499;SHT31;51087;55.718;21.122;2022-11-25T16:41:34;0.50;94.71
64499;SHT31;51087;55.718;21.122;2022-11-25T16:44:00;0.50;94.74
64499;SHT31;51087;55.718;21.122;2022-11-25T16:46:28;0.50;94.80
64499;SHT31;51087;55.718;21.122;2022-11-25T16:48:54;0.52;94.93
64499;SHT31;51087;55.718;21.122;2022-11-25T16:51:22;0.50;94.89
64499;SHT31;51087;55.718;21.122;2022-11-25T16:53:49;0.52;94.89
64499;SHT31;51087;55.718;21.122;2022-11-25T16:56:26;0.54;94.99
64499;SHT31;51087;55.718;21.122;2022-11-25T16:58:52;0.53;94.85
64499;SHT31;51087;55.718;21.122;2022-11-25T17:01:22;0.54;95.04
64499;SHT31;51087;55.718;21.122;2022-11-25T17:03:48;0.56;94.84
64499;SHT31;51087;55.718;21.122;2022-11-25T17:06:20;0.53;94.96
64499;SHT31;51087;55.718;21.122;2022-11-25T17:08:46;0.56;95.17
64499;SHT31;51087;55.718;21.122;2022-11-25T17:11:18;0.59;95.26
64499;SHT31;51087;55.718;21.122;2022-11-25T17:13:47;0.59;94.92
64499;SHT31;51087;55.718;21.122;2022-11-25T17:16:19;0.60;94.99
64499;SHT31;51087;55.718;21.122;2022-11-25T17:18:45;0.56;95.16
64499;SHT31;51087;55.718;21.122;2022-11-25T17:21:13;0.52;95.26
64499;SHT31;51087;55.718;21.122;2022-11-25T17:23:40;0.50;95.45
64499;SHT31;51087;55.718;21.122;2022-11-25T17:26:18;0.50;95.67
64499;SHT31;51087;55.718;21.122;2022-11-25T17:28:53;0.49;95.61
64499;SHT31;51087;55.718;21.122;2022-11-25T17:31:27;0.48;95.72
64499;SHT31;51087;55.718;21.122;2022-11-25T17:33:54;0.52;95.80
64499;SHT31;51087;55.718;21.122;2022-11-25T17:36:19;0.46;95.86
64499;SHT31;51087;55.718;21.122;2022-11-25T17:38:46;0.43;95.99
64499;SHT31;51087;55.718;21.122;2022-11-25T17:41:12;0.43;96.09
64499;SHT31;51087;55.718;21.122;2022-11-25T17:43:38;0.45;96.09
64499;SHT31;51087;55.718;21.122;2022-11-25T17:46:04;0.41;96.16